Flight Track Log - Related Links

Times and Time Zones

All times are in EDT time to prevent confusion due to time zone crossing. See the ASQ5678 flight status page for this flight to view local times or setup timezone preferences in your user account.

Time Position Orientation Groundspeed Altitude Reporting Facility
EDT Latitude Longitude Course Direction KTS MPH feet Rate Location/Type
Thu 06:09:35 PM 40.6333 -74.1833 217° Southwest 181 208 2,200  Level New York TRACON
Thu 06:10:35 PM 40.5833 -74.2333 217° Southwest 232 267 4,000 2,000 Climbing New York TRACON
Thu 06:11:35 PM 40.5833 -74.3167 270° West 248 285 6,200 2,100 Climbing New York TRACON
Thu 06:12:35 PM 40.5833 -74.4000 270° West 265 305 8,200 1,709 Climbing New York TRACON
Thu 06:14:27 PM 40.6164 -74.5931 283° West 298 343 11,100 1,341 Climbing New York Center
Thu 06:15:25 PM 40.6333 -74.7089 281° West 310 357 12,000 1,068 Climbing New York Center
Thu 06:16:25 PM 40.6522 -74.8331 281° West 343 395 13,200 1,131 Climbing New York Center
Thu 06:17:27 PM 40.6686 -74.9597 280° West 357 411 14,300 1,082 Climbing New York Center
Thu 06:18:27 PM 40.6744 -75.0861 274° West 357 411 15,400 1,068 Climbing New York Center
Thu 06:19:25 PM 40.6308 -75.1928 242° Southwest 345 397 16,400 1,119 Climbing New York Center
Thu 06:20:25 PM 40.5767 -75.3067 238° Southwest 357 411 17,600 1,000 Climbing New York Center
Thu 06:21:25 PM 40.5283 -75.4211 241° Southwest 362 417 18,400 744 Climbing New York Center
Thu 06:22:26 PM 40.4739 -75.5347 238° Southwest 373 429 19,100 590 Climbing New York Center
Thu 06:23:27 PM 40.4211 -75.6536 240° Southwest 378 435 19,600 555 Climbing New York Center
Thu 06:24:25 PM 40.3636 -75.7775 239° Southwest 383 441 20,200 661 Climbing New York Center
Thu 06:25:25 PM 40.3064 -75.8986 238° Southwest 391 450 20,900 787 Climbing New York Center
Thu 06:26:27 PM 40.2400 -76.0353 238° Southwest 398 458 21,800 800 Climbing New York Center
Thu 06:27:25 PM 40.1822 -76.1586 239° Southwest 398 458 22,500 655 Climbing New York Center
Thu 06:28:26 PM 40.1292 -76.2683 238° Southwest 398 458 23,100 639 Climbing New York Center
Thu 06:29:27 PM 40.0714 -76.3914 238° Southwest 398 458 23,800 744 Climbing New York Center
Thu 06:30:27 PM 40.0175 -76.5119 240° Southwest 398 458 24,600 769 Climbing New York Center
Thu 06:31:24 PM 39.9594 -76.6344 238° Southwest 398 458 25,300 698 Climbing New York Center
Thu 06:33:36 PM 39.8378 -76.8939 239° Southwest 413 475 26,800 684 Climbing Washington Center
Thu 06:34:37 PM 39.7803 -77.0144 238° Southwest 407 468 27,500 694 Climbing Washington Center
Thu 06:35:37 PM 39.7247 -77.1347 239° Southwest 401 461 28,200 712 Climbing Washington Center
Thu 06:36:35 PM 39.6689 -77.2522 238° Southwest 395 455 28,900 706 Climbing Washington Center
Thu 06:37:36 PM 39.6108 -77.3747 238° Southwest 395 455 29,600 744 Climbing Washington Center
Thu 06:38:36 PM 39.5528 -77.4944 238° Southwest 400 460 30,400 744 Climbing Washington Center
Thu 06:39:37 PM 39.4967 -77.6167 239° Southwest 400 460 31,100 706 Climbing Washington Center
Thu 06:40:35 PM 39.4361 -77.7386 237° Southwest 400 460 31,800 454 Climbing Washington Center
Thu 06:41:36 PM 39.3775 -77.8683 240° Southwest 400 460 32,000 99 Climbing Washington Center
Thu 06:42:36 PM 39.3250 -78.0008 243° Southwest 407 468 32,000  Level Washington Center
Thu 06:43:36 PM 39.2722 -78.1386 244° Southwest 418 481 32,000  Level Washington Center
Thu 06:44:37 PM 39.2214 -78.2628 242° Southwest 429 494 32,000  Level Washington Center
Thu 06:45:35 PM 39.1572 -78.4236 243° Southwest 429 494 32,000  Level Washington Center
Thu 06:46:35 PM 39.1019 -78.5606 243° Southwest 429 494 32,000  Level Washington Center
Thu 06:47:36 PM 39.0464 -78.6972 242° Southwest 429 494 32,000  Level Washington Center
Thu 06:48:36 PM 38.9969 -78.8342 245° Southwest 429 494 32,000  Level Washington Center
Thu 06:49:37 PM 38.9761 -78.9853 260° West 429 494 32,000  Level Washington Center
Thu 06:50:35 PM 38.9592 -79.1369 262° West 429 494 32,000  Level Washington Center
Thu 06:51:35 PM 38.9419 -79.2908 262° West 434 499 32,000  Level Washington Center
Thu 06:52:36 PM 38.9269 -79.4422 263° West 434 499 32,000  Level Washington Center
Thu 06:53:37 PM 38.9069 -79.6011 261° West 441 507 32,000  Level Washington Center
Thu 06:54:37 PM 38.8872 -79.7547 261° West 448 516 32,000  Level Washington Center
Thu 06:55:35 PM 38.8700 -79.8897 261° West 442 509 32,000  Level Washington Center
Thu 06:56:24 PM 38.8500 -80.0164 259° West 431 496 32,000  Level Indianapolis Center
Thu 06:57:26 PM 38.8317 -80.1664 261° West 428 493 32,000  Level Indianapolis Center
Thu 06:58:28 PM 38.8119 -80.3147 260° West 424 488 32,000  Level Indianapolis Center
Thu 06:59:30 PM 38.7939 -80.4622 261° West 419 482 32,000  Level Indianapolis Center
Thu 07:00:32 PM 38.7764 -80.6089 261° West 418 481 32,000  Level Indianapolis Center
Thu 07:01:34 PM 38.7522 -80.7839 260° West 418 481 32,000  Level Indianapolis Center
Thu 07:02:36 PM 38.7325 -80.9306 260° West 418 481 32,000  Level Indianapolis Center
Thu 07:03:38 PM 38.7131 -81.0789 261° West 421 484 32,000  Level Indianapolis Center
Thu 07:04:40 PM 38.6925 -81.2283 260° West 426 490 32,000  Level Indianapolis Center
Thu 07:05:42 PM 38.6706 -81.3792 259° West 428 493 32,000  Level Indianapolis Center
Thu 07:06:44 PM 38.6497 -81.5397 261° West 433 498 32,000  Level Indianapolis Center
Thu 07:07:46 PM 38.6283 -81.6969 260° West 435 501 32,000 -581 Level Indianapolis Center
Thu 07:08:48 PM 38.6067 -81.8483 260° West 432 497 30,800 -1,306 Descending Indianapolis Center
Thu 07:09:50 PM 38.5858 -82.0011 260° West 434 499 29,300 -1,597 Descending Indianapolis Center
Thu 07:10:52 PM 38.5589 -82.1831 259° West 434 499 27,500 -1,597 Descending Indianapolis Center
Thu 07:11:54 PM 38.5372 -82.3356 260° West 436 502 26,000 -1,500 Descending Indianapolis Center
Thu 07:12:56 PM 38.5136 -82.4908 259° West 442 509 24,400 -1,113 Descending Indianapolis Center
Thu 07:13:58 PM 38.4881 -82.6636 259° West 451 519 23,700 -1,065 Descending Indianapolis Center
Thu 07:15:00 PM 38.4656 -82.8142 259° West 439 505 22,200 -1,306 Descending Indianapolis Center
Thu 07:16:02 PM 38.4414 -82.9669 259° West 438 504 21,000 -581 Descending Indianapolis Center
Thu 07:17:04 PM 38.4194 -83.1142 259° West 426 490 21,000 -194 Level Indianapolis Center
Thu 07:18:06 PM 38.3975 -83.2644 259° West 431 496 20,600 -1,500 Descending Indianapolis Center
Thu 07:19:08 PM 38.4372 -83.4264 287° West 413 475 17,900 -2,400 Descending Indianapolis Center
Thu 07:20:11 PM 38.4825 -83.5525 295° West 393 452 15,600 -2,208 Descending Indianapolis Center
Thu 07:21:13 PM 38.5258 -83.6747 294° West 382 440 13,300 -2,098 Descending Indianapolis Center
Thu 07:22:14 PM 38.5706 -83.8011 294° West 388 447 11,300 -1,610 Descending Indianapolis Center
Thu 07:23:16 PM 38.6133 -83.9214 295° West 372 428 10,000 -677 Descending Indianapolis Center
Thu 07:24:18 PM 38.6758 -84.0425 303° West 358 412 9,900 -48 Descending Indianapolis Center
Thu 07:25:20 PM 38.7308 -84.1486 304° West 356 410 9,900  Level Indianapolis Center
Thu 07:26:22 PM 38.7872 -84.2592 303° West 363 418 9,900 -194 Level Indianapolis Center
Thu 07:27:24 PM 38.8375 -84.3550 304° West 326 375 9,500 -484 Descending Indianapolis Center
Thu 07:28:26 PM 38.8811 -84.4422 303° West 290 334 8,900 -290 Descending Indianapolis Center
Thu 07:29:28 PM 38.9294 -84.5247 307° West 286 329 8,900 -290 Level Indianapolis Center
Thu 07:30:30 PM 39.0103 -84.5389 352° North 292 336 8,300 -919 Descending Indianapolis Center
Thu 07:31:32 PM 39.0889 -84.5406 359° North 282 325 7,000 -1,512 Descending Indianapolis Center
Thu 07:32:33 PM 39.1511 -84.5622 345° North 261 300 5,200 -1,770 Descending Indianapolis Center

Login

Don't have an account? Register now (free) for customized features, flight alerts, and more!